Airfield :
LOGIN :

Register | Disclaimer

   EN    FR    IT 

 










Legend :    VFR   Marginal VFR   IFR   Intensive IFR   Very Intensive IFR
Visi :
Ceiling :
>= 8 km
>= 3000ft
5 to 8 km
1000 to 3000 ft
1500m to 5 km
500 to 1000 ft
800 to 1500m
200 to 500 ft
< 800m
< 200 ft
Symbols :   Thunderstorms  Fog  Heavy snow  Heavy precipitations  Wind > 20 kt
SIGMETs :     Misc.  Thunderstorms  Icing  Turbulence  Mountain Waves  Volcanic Ashes







- Airport Elevation : 49 ft
- IATA code : SEN
- Download approach charts


EGMC - Southend

CURRENT METAR :
  • 150950Z 30010KT 9999 FEW023 03/01 Q0994 RESHSN

EXPIRED METARs :
  • 150920Z 30009KT 9999 FEW026 02/01 Q0993 RESHSN
  • 150850Z 30007KT 9999 SCT018 02/M00 Q0993 RESHSN
  • 150820Z 30007KT 9999 SCT018 02/M00 Q0992 RESHSN
  • 150750Z 27005KT 260V320 9999 VCSH SCT015 01/M00 Q0992 RESHSN
  • 150720Z 30005KT 9999 -SHSN OVC016 01/M00 Q0992

TAF TAF EGMC
Valid from the 15 at 09:00 until the 15 at 18:00 UTC


150802Z 1509/1518 33010KT 9999 SCT030
TEMPO 1509/1517 8000 -SHRA
PROB30
TEMPO 1509/1515 SHRA BKN008
PROB30
TEMPO 1510/1515 35015G25KT
No reported NOTAMs for that airfield.



MET'MAP, your aeronautical weather chart ! - Copyright ORBIFLY December 2007 - Disclaimer

ORBIFLY MET'MAP TEAM :

Programming & Development : Alexandra Zaïnal
Concept & Development : Baudouin d'Aumeries
Co-Development & Prog : Marc-Olivier Méhu
Technical & hardware support : Manuel Goepfert

Contact : metmap@orbifly.com




SOURCES & CREDITS :

   NOAA